Time;durP1;ratioP1;P1;durP2;ratioP2;P2;SDS_P1;SDS_P2;PMS_P1;PMS_P2;Temp;Humidity;BMP_temperature;BMP_pressure;BME280_temperature;BME280_humidity;BME280_pressure;Samples;Min_cycle;Max_cycle;Signal;HPM_P1;HPM_P2
2023/12/14 00:01:18;;;;;;;52.63;19.80;;;8.40;99.90;;;;;;5055224;28;20256;-85
2023/12/14 00:03:44;;;;;;;62.80;20.20;;;8.40;99.90;;;;;;5054997;28;20169;-85
2023/12/14 00:06:13;;;;;;;58.63;20.80;;;8.50;99.90;;;;;;5055393;28;20215;-85
2023/12/14 00:08:39;;;;;;;62.65;21.70;;;8.40;99.90;;;;;;5055632;28;20235;-85
2023/12/14 00:11:06;;;;;;;67.45;19.55;;;8.50;99.90;;;;;;5037288;28;20169;-85
2023/12/14 00:13:32;;;;;;;63.13;21.20;;;8.50;99.90;;;;;;5055016;28;20169;-85
2023/12/14 00:15:58;;;;;;;70.38;21.85;;;8.50;99.90;;;;;;5055107;28;20169;-85
2023/12/14 00:18:24;;;;;;;64.03;20.87;;;8.50;99.90;;;;;;5055016;28;20176;-84
2023/12/14 00:20:50;;;;;;;63.47;22.43;;;8.40;99.90;;;;;;5054978;28;20414;-84
2023/12/14 00:23:16;;;;;;;71.97;23.07;;;8.40;99.90;;;;;;5054854;28;20431;-84
2023/12/14 00:25:41;;;;;;;70.27;21.70;;;8.40;99.90;;;;;;5036831;28;20434;-84
2023/12/14 00:28:07;;;;;;;74.57;24.07;;;8.40;99.90;;;;;;5126830;22;20200;-84
2023/12/14 00:33:00;;;;;;;77.75;21.23;;;8.40;99.90;;;;;;5122800;22;20259;-84
2023/12/14 00:35:26;;;;;;;66.93;23.87;;;8.40;99.90;;;;;;5036568;28;20185;-84
2023/12/14 00:37:52;;;;;;;77.27;25.17;;;8.40;99.90;;;;;;5054919;28;20169;-84
2023/12/14 00:40:17;;;;;;;73.70;23.30;;;8.40;99.90;;;;;;5036842;28;20173;-84
2023/12/14 00:42:43;;;;;;;74.60;25.40;;;8.40;99.90;;;;;;5054499;28;20173;-83
2023/12/14 00:45:09;;;;;;;70.00;22.27;;;8.40;99.90;;;;;;5054348;28;20196;-83
2023/12/14 00:47:38;;;;;;;79.25;21.88;;;8.40;99.90;;;;;;5053991;28;20197;-83
2023/12/14 00:50:04;;;;;;;74.55;24.52;;;8.40;99.90;;;;;;5036253;28;20546;-83
2023/12/14 00:52:30;;;;;;;71.22;24.17;;;8.40;99.90;;;;;;5036621;28;20173;-83
2023/12/14 00:54:55;;;;;;;80.90;24.17;;;8.40;99.90;;;;;;5036336;28;20684;-84
2023/12/14 00:57:21;;;;;;;70.13;23.00;;;8.40;99.90;;;;;;5054672;28;20193;-84
2023/12/14 00:59:47;;;;;;;68.77;22.63;;;8.40;99.90;;;;;;5037025;28;20546;-84
2023/12/14 01:02:12;;;;;;;65.50;22.50;;;8.40;99.90;;;;;;5040661;28;20222;-84
2023/12/14 01:04:39;;;;;;;74.03;23.17;;;8.40;99.90;;;;;;5040457;28;20189;-84
2023/12/14 01:07:05;;;;;;;64.05;21.88;;;8.40;99.90;;;;;;5058580;28;20192;-85
2023/12/14 01:09:31;;;;;;;64.90;19.50;;;8.40;99.90;;;;;;5058797;28;20161;-85
2023/12/14 01:11:56;;;;;;;62.53;20.93;;;8.40;99.90;;;;;;5058249;28;20192;-84
2023/12/14 01:14:22;;;;;;;67.33;22.07;;;8.30;99.90;;;;;;5058102;28;20502;-85
2023/12/14 01:16:48;;;;;;;78.60;22.87;;;8.40;99.90;;;;;;5057977;28;20630;-84
2023/12/14 01:19:13;;;;;;;68.30;24.27;;;8.40;99.90;;;;;;5058456;28;20161;-84
2023/12/14 01:21:39;;;;;;;70.43;22.37;;;8.40;99.90;;;;;;5040314;28;20172;-84
2023/12/14 01:24:05;;;;;;;65.23;23.03;;;8.40;99.90;;;;;;5058196;28;20270;-85
2023/12/14 01:26:31;;;;;;;64.13;21.70;;;8.40;99.90;;;;;;5058021;28;20244;-84
2023/12/14 01:28:58;;;;;;;65.90;22.73;;;8.40;99.90;;;;;;5040378;28;20451;-85
2023/12/14 01:31:24;;;;;;;69.72;23.63;;;8.30;99.90;;;;;;5039819;28;20181;-84
2023/12/14 01:33:50;;;;;;;71.97;25.57;;;8.30;99.90;;;;;;5058077;28;20229;-84
2023/12/14 01:36:23;;;;;;;79.22;27.58;;;8.30;99.90;;;;;;5058112;28;20399;-84
2023/12/14 01:38:49;;;;;;;76.18;25.13;;;8.30;99.90;;;;;;5040029;28;20672;-85
2023/12/14 01:41:15;;;;;;;70.13;24.88;;;8.30;99.90;;;;;;5058087;28;20176;-84
2023/12/14 01:43:41;;;;;;;80.23;24.03;;;8.30;99.90;;;;;;5058626;28;20165;-84
2023/12/14 01:46:06;;;;;;;78.00;24.10;;;8.30;99.90;;;;;;5040413;28;20617;-84
2023/12/14 01:48:32;;;;;;;70.17;26.20;;;8.40;99.90;;;;;;5057861;28;20250;-85
2023/12/14 01:50:58;;;;;;;73.57;24.53;;;8.40;99.90;;;;;;5040444;28;20161;-84
2023/12/14 01:53:23;;;;;;;74.27;24.50;;;8.40;99.90;;;;;;5058522;28;20164;-85
2023/12/14 01:55:49;;;;;;;66.83;23.70;;;8.40;99.90;;;;;;5058014;28;20278;-84
2023/12/14 01:58:15;;;;;;;73.33;26.47;;;8.40;99.90;;;;;;5058096;28;20197;-85
2023/12/14 02:00:48;;;;;;;66.77;24.00;;;8.30;99.90;;;;;;5040503;28;20227;-85
2023/12/14 02:03:16;;;;;;;69.50;24.67;;;8.40;99.90;;;;;;5058378;28;20185;-85
2023/12/14 02:05:41;;;;;;;77.50;29.08;;;8.40;99.90;;;;;;5057893;28;20577;-84
2023/12/14 02:08:08;;;;;;;73.67;25.50;;;8.40;99.90;;;;;;5057778;28;20194;-84
2023/12/14 02:10:34;;;;;;;71.35;25.23;;;8.30;99.90;;;;;;5039766;28;20403;-85
2023/12/14 02:13:02;;;;;;;66.93;26.70;;;8.40;99.90;;;;;;5057137;28;20252;-84
2023/12/14 02:15:27;;;;;;;79.15;26.30;;;8.30;99.90;;;;;;5039949;28;20519;-85
2023/12/14 02:17:53;;;;;;;77.87;29.20;;;8.40;99.90;;;;;;5040260;28;20205;-85
2023/12/14 02:20:19;;;;;;;80.63;26.70;;;8.40;99.90;;;;;;5040650;28;20173;-85
2023/12/14 02:22:58;;;;;;;74.07;26.83;;;8.40;99.90;;;;;;5058263;28;20166;-85
2023/12/14 02:25:24;;;;;;;68.95;26.10;;;8.40;99.90;;;;;;5040405;28;20193;-85
2023/12/14 02:27:51;;;;;;;78.63;27.52;;;8.40;99.90;;;;;;5040434;28;20204;-85
2023/12/14 02:30:17;;;;;;;75.15;26.58;;;8.40;99.90;;;;;;5057988;28;20525;-85
2023/12/14 02:32:43;;;;;;;73.03;25.80;;;8.40;99.90;;;;;;5057478;28;20184;-84
2023/12/14 02:35:09;;;;;;;72.60;25.50;;;8.40;99.90;;;;;;5057713;28;20189;-85
2023/12/14 02:37:40;;;;;;;76.25;25.92;;;8.40;99.90;;;;;;5057743;28;20173;-85
2023/12/14 02:40:06;;;;;;;79.20;27.77;;;8.40;99.90;;;;;;5058532;28;20156;-85
2023/12/14 02:42:33;;;;;;;83.63;29.67;;;8.40;99.90;;;;;;5039780;28;20200;-85
2023/12/14 02:44:59;;;;;;;82.03;29.58;;;8.40;99.90;;;;;;5057716;28;20272;-85
2023/12/14 02:47:24;;;;;;;84.43;29.03;;;8.40;99.90;;;;;;5058426;28;20228;-85
2023/12/14 02:49:50;;;;;;;79.60;28.70;;;8.40;99.90;;;;;;5058419;28;20407;-84
2023/12/14 02:52:16;;;;;;;107.87;29.13;;;8.40;99.90;;;;;;5058182;28;20613;-84
2023/12/14 02:54:41;;;;;;;86.60;27.50;;;8.40;99.90;;;;;;5039865;28;20654;-84
2023/12/14 02:57:07;;;;;;;78.90;27.73;;;8.40;99.90;;;;;;5039752;28;20180;-84
2023/12/14 02:59:33;;;;;;;72.97;25.33;;;8.30;99.90;;;;;;5057526;28;20219;-85
2023/12/14 03:01:59;;;;;;;73.13;23.37;;;8.30;99.90;;;;;;5057372;28;20169;-85
2023/12/14 03:04:25;;;;;;;78.32;24.52;;;8.30;99.90;;;;;;5038897;28;20196;-84
2023/12/14 03:06:51;;;;;;;70.30;21.90;;;8.30;99.90;;;;;;5038736;28;20173;-84
2023/12/14 03:09:18;;;;;;;64.30;20.97;;;8.20;99.90;;;;;;5038933;28;20199;-84
2023/12/14 03:11:44;;;;;;;68.28;24.50;;;8.20;99.90;;;;;;5056592;28;20158;-85
2023/12/14 03:14:10;;;;;;;65.73;21.87;;;8.10;99.90;;;;;;5038702;28;20209;-84
2023/12/14 03:16:36;;;;;;;60.78;20.52;;;8.20;99.90;;;;;;5038626;28;20494;-85
2023/12/14 03:19:03;;;;;;;67.63;18.80;;;8.20;99.90;;;;;;5056455;28;20196;-85
2023/12/14 03:21:29;;;;;;;58.78;20.30;;;8.10;99.90;;;;;;5057087;28;20435;-84
2023/12/14 03:23:55;;;;;;;62.80;19.42;;;8.20;99.90;;;;;;5056132;28;20550;-84
2023/12/14 03:26:21;;;;;;;61.37;20.80;;;8.10;99.90;;;;;;5056476;28;20173;-84
2023/12/14 03:28:46;;;;;;;63.47;21.97;;;8.00;99.90;;;;;;5056859;28;20193;-84
2023/12/14 03:31:13;;;;;;;66.93;22.90;;;8.00;99.90;;;;;;5056215;28;20177;-84
2023/12/14 03:33:39;;;;;;;60.28;20.85;;;8.00;99.90;;;;;;5056544;28;20145;-84
2023/12/14 03:38:33;;;;;;;63.33;21.45;;;8.00;99.90;;;;;;5270663;22;20225;-84
2023/12/14 03:41:00;;;;;;;55.95;19.35;;;8.00;99.90;;;;;;5016554;28;20195;-84
2023/12/14 03:43:26;;;;;;;62.17;20.23;;;7.90;99.90;;;;;;4998660;28;20170;-85
2023/12/14 03:45:52;;;;;;;63.67;22.60;;;7.90;99.90;;;;;;5016698;28;20186;-85
2023/12/14 03:48:17;;;;;;;61.10;21.13;;;7.90;99.90;;;;;;5016497;28;20242;-85
2023/12/14 03:50:43;;;;;;;56.43;19.37;;;7.80;99.90;;;;;;5016414;28;20167;-85
2023/12/14 03:53:09;;;;;;;60.57;20.83;;;7.80;99.90;;;;;;5019575;28;20171;-85
2023/12/14 03:55:34;;;;;;;66.87;22.93;;;7.80;99.90;;;;;;5003160;28;20191;-85
2023/12/14 03:58:00;;;;;;;70.40;23.40;;;7.70;99.90;;;;;;5019930;28;20591;-84
2023/12/14 04:00:26;;;;;;;65.43;21.37;;;7.70;99.90;;;;;;5016691;28;20167;-85
2023/12/14 04:02:52;;;;;;;61.40;20.65;;;7.70;99.90;;;;;;5016685;28;20193;-85
2023/12/14 04:05:20;;;;;;;66.13;19.53;;;7.70;99.90;;;;;;5016873;28;20740;-85
2023/12/14 04:07:46;;;;;;;68.75;21.33;;;7.70;99.90;;;;;;5016968;28;20603;-85
2023/12/14 04:10:13;;;;;;;64.87;21.07;;;7.70;99.90;;;;;;4999238;28;20209;-85
2023/12/14 04:12:40;;;;;;;61.03;21.35;;;7.70;99.90;;;;;;4998735;28;20174;-84
2023/12/14 04:15:07;;;;;;;58.35;21.63;;;7.60;99.90;;;;;;4999517;28;20260;-85
2023/12/14 04:17:33;;;;;;;67.07;21.35;;;7.60;99.90;;;;;;5016864;28;20213;-85
2023/12/14 04:19:59;;;;;;;68.18;23.77;;;7.60;99.90;;;;;;4999221;28;20655;-85
2023/12/14 04:22:26;;;;;;;71.80;24.25;;;7.60;99.90;;;;;;5017097;28;20628;-85
2023/12/14 04:24:51;;;;;;;72.25;24.83;;;7.60;99.90;;;;;;5016976;28;20199;-84
2023/12/14 04:27:17;;;;;;;66.33;23.23;;;7.60;99.90;;;;;;5016451;28;20217;-85
2023/12/14 04:29:43;;;;;;;65.80;23.77;;;7.60;99.90;;;;;;4999065;28;20163;-85
2023/12/14 04:32:09;;;;;;;70.68;23.98;;;7.60;99.90;;;;;;5017289;28;20159;-85
2023/12/14 04:34:35;;;;;;;77.07;27.00;;;7.60;99.90;;;;;;5016199;28;20525;-85
2023/12/14 04:37:01;;;;;;;70.50;26.17;;;7.50;99.90;;;;;;5016481;28;20173;-85
2023/12/14 04:39:27;;;;;;;72.23;27.77;;;7.50;99.90;;;;;;5015862;28;20186;-85
2023/12/14 04:41:53;;;;;;;68.40;26.20;;;7.50;99.90;;;;;;5015520;28;20245;-84
2023/12/14 04:44:21;;;;;;;75.00;28.02;;;7.50;99.90;;;;;;4998112;28;20193;-84
2023/12/14 04:46:47;;;;;;;81.90;26.65;;;7.40;99.90;;;;;;4998239;28;20597;-84
2023/12/14 04:49:13;;;;;;;82.40;29.52;;;7.40;99.90;;;;;;5016331;28;20173;-84
2023/12/14 04:51:39;;;;;;;89.53;30.63;;;7.40;99.90;;;;;;5015934;28;20171;-85
2023/12/14 04:54:04;;;;;;;78.87;28.27;;;7.40;99.90;;;;;;4998270;28;20425;-84
2023/12/14 04:56:30;;;;;;;90.03;29.50;;;7.40;99.90;;;;;;5016072;28;20190;-84
2023/12/14 04:58:58;;;;;;;80.67;27.37;;;7.40;99.90;;;;;;5016448;28;20179;-84
2023/12/14 05:01:26;;;;;;;80.40;27.65;;;7.40;99.90;;;;;;5015807;28;20223;-84
2023/12/14 05:03:52;;;;;;;74.05;28.77;;;7.40;99.90;;;;;;5015700;28;20675;-84
2023/12/14 05:06:18;;;;;;;75.55;27.80;;;7.30;99.90;;;;;;5015798;28;20225;-85
2023/12/14 05:08:44;;;;;;;74.73;27.93;;;7.40;99.90;;;;;;5015788;28;20186;-85
2023/12/14 05:11:09;;;;;;;83.97;28.27;;;7.40;99.90;;;;;;5015679;28;20795;-85
2023/12/14 05:13:35;;;;;;;76.77;26.27;;;7.30;99.90;;;;;;5015921;28;20183;-85
2023/12/14 05:16:01;;;;;;;77.03;24.70;;;7.30;99.90;;;;;;4998095;28;20607;-85
2023/12/14 05:18:30;;;;;;;82.23;27.23;;;7.30;99.90;;;;;;5016228;28;20167;-84
2023/12/14 05:20:55;;;;;;;99.30;30.77;;;7.30;99.90;;;;;;5015768;28;20197;-85
2023/12/14 05:23:21;;;;;;;76.40;27.50;;;7.30;99.90;;;;;;5016539;28;20166;-85
2023/12/14 05:25:47;;;;;;;84.13;24.60;;;7.20;99.90;;;;;;5015862;28;20182;-85
2023/12/14 05:28:13;;;;;;;74.23;25.70;;;7.30;99.90;;;;;;5015752;28;20441;-85
2023/12/14 05:30:39;;;;;;;72.00;25.37;;;7.40;99.90;;;;;;4998523;28;20493;-85
2023/12/14 05:33:04;;;;;;;70.07;25.07;;;7.50;99.90;;;;;;5016161;28;20525;-85
2023/12/14 05:35:30;;;;;;;76.20;26.63;;;7.30;99.90;;;;;;5017010;28;20656;-84
2023/12/14 05:37:56;;;;;;;73.20;26.50;;;7.30;99.90;;;;;;5017277;28;20171;-85
2023/12/14 05:40:22;;;;;;;66.37;24.17;;;7.20;99.90;;;;;;5016833;28;20436;-85
2023/12/14 05:42:47;;;;;;;70.20;25.70;;;7.20;99.90;;;;;;4999514;28;20174;-85
2023/12/14 05:45:19;;;;;;;75.90;25.30;;;7.10;99.90;;;;;;4999729;28;20480;-85
2023/12/14 05:47:45;;;;;;;70.15;24.27;;;7.20;99.90;;;;;;5001608;28;20676;-85
2023/12/14 05:50:11;;;;;;;66.97;27.50;;;7.10;99.90;;;;;;5002955;28;20175;-84
2023/12/14 05:52:37;;;;;;;67.53;23.73;;;7.10;99.90;;;;;;5002576;28;20233;-85
2023/12/14 05:55:04;;;;;;;72.47;23.38;;;7.10;99.90;;;;;;5020930;28;20183;-86
2023/12/14 05:57:30;;;;;;;68.93;24.00;;;7.10;99.90;;;;;;5020293;28;20176;-85
2023/12/14 06:00:16;;;;;;;69.43;23.50;;;7.10;99.90;;;;;;5002689;28;20265;-85
2023/12/14 06:02:41;;;;;;;62.25;24.20;;;7.10;99.90;;;;;;5011262;28;20183;-85
2023/12/14 06:05:11;;;;;;;64.70;23.40;;;7.00;99.90;;;;;;5020711;28;20232;-85
2023/12/14 06:07:39;;;;;;;74.20;23.83;;;7.10;99.90;;;;;;5020848;28;20225;-85
2023/12/14 06:10:09;;;;;;;67.18;24.33;;;7.10;99.90;;;;;;5002788;28;20167;-85
2023/12/14 06:12:35;;;;;;;72.63;26.50;;;7.10;99.90;;;;;;5002672;28;20175;-85
2023/12/14 06:15:04;;;;;;;70.53;24.93;;;7.10;99.90;;;;;;5020298;28;20189;-85
2023/12/14 06:17:31;;;;;;;65.75;23.90;;;7.20;99.90;;;;;;5001758;28;20167;-85
2023/12/14 06:19:57;;;;;;;60.58;24.15;;;7.10;99.90;;;;;;5019522;28;20158;-85
2023/12/14 06:22:26;;;;;;;65.17;21.97;;;7.10;99.90;;;;;;5002402;28;20660;-85
2023/12/14 06:24:52;;;;;;;61.45;23.38;;;7.10;99.90;;;;;;5001800;28;20194;-85
2023/12/14 06:27:17;;;;;;;64.27;21.93;;;7.10;99.90;;;;;;5019454;28;20643;-85
2023/12/14 06:29:43;;;;;;;70.10;24.20;;;7.10;99.90;;;;;;5018859;28;20428;-84
2023/12/14 06:32:09;;;;;;;74.40;24.50;;;7.00;99.90;;;;;;5019092;28;20458;-84
2023/12/14 06:34:38;;;;;;;73.00;23.20;;;7.10;99.90;;;;;;5019048;28;20194;-84
2023/12/14 06:37:03;;;;;;;73.32;25.55;;;7.00;99.90;;;;;;5019207;28;20170;-84
2023/12/14 06:39:29;;;;;;;64.77;21.77;;;7.10;99.90;;;;;;5001169;28;20186;-84
2023/12/14 06:41:55;;;;;;;78.03;24.23;;;7.00;99.90;;;;;;5018804;28;20197;-84
2023/12/14 06:44:20;;;;;;;72.40;24.80;;;6.90;99.90;;;;;;5192461;22;21140;-84
2023/12/14 06:46:46;;;;;;;68.27;23.33;;;7.00;99.90;;;;;;5121009;22;20307;-84
2023/12/14 06:49:14;;;;;;;63.50;20.90;;;7.00;99.90;;;;;;5058470;28;20193;-84
2023/12/14 06:51:46;;;;;;;64.60;21.92;;;7.00;99.90;;;;;;5040460;28;20257;-84
2023/12/14 06:54:12;;;;;;;73.53;23.40;;;7.00;99.90;;;;;;5058836;28;20185;-84
2023/12/14 06:56:37;;;;;;;62.10;21.37;;;7.00;99.90;;;;;;5058621;28;20211;-84
2023/12/14 06:59:06;;;;;;;62.43;21.20;;;6.90;99.90;;;;;;5058707;28;20169;-84
2023/12/14 07:01:32;;;;;;;67.88;21.23;;;7.00;99.90;;;;;;5059005;28;20175;-84
2023/12/14 07:03:57;;;;;;;71.20;24.97;;;7.00;99.90;;;;;;5058378;28;20189;-84
2023/12/14 07:06:23;;;;;;;62.70;20.33;;;7.00;99.90;;;;;;5039652;28;20181;-84
2023/12/14 07:08:49;;;;;;;61.97;20.67;;;6.90;99.90;;;;;;5057242;28;20268;-84
2023/12/14 07:11:15;;;;;;;64.67;19.60;;;6.90;99.90;;;;;;5039947;28;20539;-84
2023/12/14 07:13:40;;;;;;;68.77;23.00;;;6.90;99.90;;;;;;5057668;28;20479;-84
2023/12/14 07:16:08;;;;;;;58.60;18.13;;;6.90;99.90;;;;;;5041126;28;20789;-84
2023/12/14 07:18:38;;;;;;;61.28;19.23;;;6.90;99.90;;;;;;5040356;28;20314;-83
2023/12/14 07:21:04;;;;;;;58.90;18.35;;;6.90;99.90;;;;;;5057569;28;20177;-84
2023/12/14 07:23:30;;;;;;;63.42;20.95;;;6.90;99.90;;;;;;5056640;28;20169;-84
2023/12/14 07:25:56;;;;;;;57.80;18.10;;;6.90;99.90;;;;;;5056483;28;20188;-83
2023/12/14 07:28:22;;;;;;;67.10;22.97;;;6.90;99.90;;;;;;5056665;28;20248;-84
2023/12/14 07:30:48;;;;;;;70.13;23.43;;;6.90;99.90;;;;;;5038999;28;20195;-84
2023/12/14 07:33:14;;;;;;;60.03;19.50;;;6.80;99.90;;;;;;5056277;28;20453;-84
2023/12/14 07:35:40;;;;;;;58.05;20.40;;;6.80;99.90;;;;;;5056469;28;20415;-84
2023/12/14 07:38:06;;;;;;;61.17;20.50;;;6.80;99.90;;;;;;5038258;28;20542;-84
2023/12/14 07:40:32;;;;;;;60.30;19.27;;;6.80;99.90;;;;;;5056362;28;20169;-83
2023/12/14 07:42:57;;;;;;;66.77;19.20;;;6.80;99.90;;;;;;5056515;28;20165;-84
2023/12/14 07:45:23;;;;;;;56.37;17.50;;;6.90;99.90;;;;;;5056231;28;20763;-84
2023/12/14 07:47:49;;;;;;;58.00;18.37;;;6.80;99.90;;;;;;5057275;28;20232;-84
2023/12/14 07:50:15;;;;;;;53.10;15.67;;;6.80;99.90;;;;;;5055695;28;20446;-84
2023/12/14 07:52:40;;;;;;;60.00;19.20;;;6.70;99.90;;;;;;5056333;28;20157;-84
2023/12/14 07:55:07;;;;;;;54.13;18.37;;;6.60;99.90;;;;;;5038289;28;20720;-84
2023/12/14 07:57:33;;;;;;;56.30;15.88;;;6.70;99.90;;;;;;5038166;28;20412;-84
2023/12/14 07:59:58;;;;;;;54.27;15.90;;;6.70;99.90;;;;;;5056317;28;20539;-83
2023/12/14 08:02:24;;;;;;;53.93;16.30;;;6.60;99.90;;;;;;5056655;28;20161;-84
2023/12/14 08:04:50;;;;;;;62.43;19.50;;;6.70;99.90;;;;;;5056673;28;20185;-84
2023/12/14 08:07:15;;;;;;;56.83;17.10;;;6.70;99.90;;;;;;5056198;28;20213;-84
2023/12/14 08:09:41;;;;;;;55.17;15.47;;;6.70;99.90;;;;;;5056173;28;20544;-83
2023/12/14 08:12:12;;;;;;;51.87;15.03;;;6.70;99.90;;;;;;5055977;28;20654;-83
2023/12/14 08:14:41;;;;;;;53.22;15.88;;;6.60;99.90;;;;;;5055530;28;20183;-83
2023/12/14 08:17:06;;;;;;;55.67;15.35;;;6.70;99.90;;;;;;5055598;28;20157;-84
2023/12/14 08:19:32;;;;;;;48.17;14.10;;;6.70;99.90;;;;;;5037718;28;20176;-83
2023/12/14 08:22:10;;;;;;;50.03;13.73;;;6.70;99.90;;;;;;5055758;28;20630;-84
2023/12/14 08:24:35;;;;;;;47.72;13.95;;;6.70;99.90;;;;;;5055659;28;20272;-84
2023/12/14 08:27:03;;;;;;;44.20;12.43;;;6.70;99.90;;;;;;5037917;28;20243;-84
2023/12/14 08:29:32;;;;;;;47.70;13.60;;;6.80;99.90;;;;;;5055063;28;20654;-83
2023/12/14 08:32:00;;;;;;;47.20;14.60;;;6.80;99.90;;;;;;5055325;28;20180;-84
2023/12/14 08:34:27;;;;;;;49.10;14.65;;;6.80;99.90;;;;;;5037672;28;20673;-84
2023/12/14 08:36:54;;;;;;;53.60;14.27;;;6.80;99.90;;;;;;5055485;28;20239;-84
2023/12/14 08:39:19;;;;;;;55.63;15.38;;;6.80;99.90;;;;;;5037534;28;20169;-84
2023/12/14 08:41:47;;;;;;;50.03;15.57;;;6.80;99.90;;;;;;5055106;28;20539;-84
2023/12/14 08:44:15;;;;;;;46.33;13.82;;;6.80;99.90;;;;;;5054729;28;20526;-84
2023/12/14 08:46:43;;;;;;;52.30;14.55;;;6.70;99.90;;;;;;5055434;28;20260;-84
2023/12/14 08:49:09;;;;;;;46.50;12.77;;;6.60;99.90;;;;;;5055474;28;20279;-84
2023/12/14 08:51:35;;;;;;;47.80;13.00;;;6.60;99.90;;;;;;5055672;28;20161;-84
2023/12/14 08:54:01;;;;;;;55.67;16.30;;;6.60;99.90;;;;;;5055181;28;20611;-83
2023/12/14 08:56:26;;;;;;;48.63;15.73;;;6.70;99.90;;;;;;5037595;28;20165;-83
2023/12/14 08:58:52;;;;;;;50.60;14.87;;;6.60;99.90;;;;;;5055534;28;20161;-84
2023/12/14 09:01:21;;;;;;;48.37;14.47;;;6.60;99.90;;;;;;5055003;28;20165;-83
2023/12/14 09:03:47;;;;;;;58.45;17.25;;;6.60;99.90;;;;;;5037013;28;20175;-83
2023/12/14 09:06:14;;;;;;;52.88;15.55;;;6.50;99.90;;;;;;5055151;28;20170;-83
2023/12/14 09:08:40;;;;;;;53.20;16.13;;;6.50;99.90;;;;;;5037089;28;20188;-83
2023/12/14 09:11:06;;;;;;;62.83;16.08;;;6.50;99.90;;;;;;5055191;28;20157;-83
2023/12/14 09:13:32;;;;;;;49.33;16.43;;;6.40;99.90;;;;;;5054878;28;20166;-82
2023/12/14 09:15:58;;;;;;;49.60;15.87;;;6.40;99.90;;;;;;5055087;28;20179;-83
2023/12/14 09:18:24;;;;;;;51.30;16.30;;;6.40;99.90;;;;;;5036650;28;20546;-83
2023/12/14 09:20:50;;;;;;;54.40;15.80;;;6.40;99.90;;;;;;5054572;28;20577;-83
2023/12/14 09:23:16;;;;;;;54.65;16.83;;;6.40;99.90;;;;;;5039647;28;20165;-83
2023/12/14 09:25:45;;;;;;;54.00;16.20;;;6.40;99.90;;;;;;5059597;28;20185;-83
2023/12/14 09:28:11;;;;;;;52.58;16.63;;;6.30;99.90;;;;;;5059091;28;20554;-83
2023/12/14 09:30:37;;;;;;;56.20;16.67;;;6.30;99.90;;;;;;5058590;28;20172;-83
2023/12/14 09:33:03;;;;;;;53.50;15.70;;;6.30;99.90;;;;;;5202959;22;20466;-83
2023/12/14 09:35:29;;;;;;;47.35;15.25;;;6.40;99.90;;;;;;5303313;22;20224;-82
2023/12/14 09:37:56;;;;;;;54.00;18.07;;;6.40;99.90;;;;;;5210031;23;20217;-82
2023/12/14 09:40:22;;;;;;;50.45;15.13;;;6.40;99.90;;;;;;5058227;28;20165;-83
2023/12/14 09:42:48;;;;;;;50.17;17.45;;;6.40;99.90;;;;;;5058323;28;20169;-83
2023/12/14 09:45:20;;;;;;;49.67;16.43;;;6.40;99.90;;;;;;5058211;28;20582;-83
2023/12/14 09:47:46;;;;;;;50.22;16.38;;;6.40;99.90;;;;;;5058124;28;20438;-83
2023/12/14 09:50:14;;;;;;;45.58;15.20;;;6.40;99.90;;;;;;5191600;22;20231;-83
2023/12/14 09:52:44;;;;;;;52.28;16.67;;;6.40;99.90;;;;;;5143513;22;20220;-83
2023/12/14 09:55:14;;;;;;;46.92;16.52;;;6.40;99.90;;;;;;5057716;28;20189;-83
2023/12/14 09:57:39;;;;;;;51.90;15.60;;;6.50;99.90;;;;;;5058417;28;20165;-83
2023/12/14 10:00:10;;;;;;;47.47;14.60;;;6.40;99.90;;;;;;5040019;28;20220;-83
2023/12/14 10:02:36;;;;;;;46.45;15.43;;;6.40;99.90;;;;;;5058525;28;20152;-83
2023/12/14 10:05:13;;;;;;;50.93;14.47;;;6.40;99.90;;;;;;5058321;28;20189;-83
2023/12/14 10:07:45;;;;;;;51.60;15.35;;;6.40;99.90;;;;;;5040617;28;20470;-83
2023/12/14 10:10:14;;;;;;;45.92;15.60;;;6.50;99.90;;;;;;5040041;28;20169;-83
2023/12/14 10:12:53;;;;;;;45.33;15.68;;;6.40;99.90;;;;;;5040571;28;20165;-83
2023/12/14 10:15:19;;;;;;;44.88;15.18;;;6.40;99.90;;;;;;5058292;28;20255;-83
2023/12/14 10:17:53;;;;;;;45.67;15.23;;;6.50;99.90;;;;;;5040139;28;20209;-83
2023/12/14 10:20:21;;;;;;;44.63;14.85;;;6.50;99.90;;;;;;5040201;28;20161;-83
2023/12/14 10:22:51;;;;;;;46.25;15.25;;;6.50;99.90;;;;;;5057763;28;20232;-84
2023/12/14 10:25:20;;;;;;;49.35;13.70;;;6.50;99.90;;;;;;5057988;28;20239;-83
2023/12/14 10:27:49;;;;;;;43.10;12.77;;;6.60;99.90;;;;;;5057338;28;20195;-83
2023/12/14 10:30:16;;;;;;;48.17;14.93;;;6.60;99.90;;;;;;5057465;28;20158;-83
2023/12/14 10:32:42;;;;;;;46.08;16.23;;;6.60;99.90;;;;;;5057092;28;20172;-83
2023/12/14 10:35:12;;;;;;;47.27;16.47;;;6.60;99.90;;;;;;5057914;28;20216;-83
2023/12/14 10:37:39;;;;;;;47.63;15.30;;;6.60;99.90;;;;;;5039392;28;20165;-83
2023/12/14 10:40:12;;;;;;;45.92;15.18;;;6.60;99.90;;;;;;5057669;28;20172;-83
2023/12/14 10:42:45;;;;;;;53.75;16.83;;;6.60;99.90;;;;;;5039274;28;20161;-83
2023/12/14 10:45:13;;;;;;;49.83;16.85;;;6.50;99.90;;;;;;5039271;28;20208;-83
2023/12/14 10:47:46;;;;;;;54.22;17.52;;;6.40;99.90;;;;;;5039319;28;20189;-83
2023/12/14 10:50:12;;;;;;;55.28;16.42;;;6.40;99.90;;;;;;5057800;28;20149;-83
2023/12/14 10:52:40;;;;;;;54.28;17.73;;;6.30;99.90;;;;;;5056875;28;20181;-83
2023/12/14 10:55:36;;;;;;;52.72;18.17;;;6.30;99.90;;;;;;5056842;28;20185;-83
2023/12/14 10:58:03;;;;;;;54.53;18.50;;;6.30;99.90;;;;;;5056919;28;20158;-83
2023/12/14 11:00:36;;;;;;;48.28;18.17;;;6.40;99.90;;;;;;5038827;28;20542;-83
2023/12/14 11:03:05;;;;;;;49.80;17.10;;;6.40;99.90;;;;;;5039702;28;20256;-83
2023/12/14 11:05:33;;;;;;;56.38;16.17;;;6.50;99.90;;;;;;5056393;28;20181;-83
2023/12/14 11:08:09;;;;;;;49.33;15.77;;;6.50;99.90;;;;;;5056400;28;20196;-83
2023/12/14 11:10:46;;;;;;;47.05;17.25;;;6.50;99.90;;;;;;5056456;28;20180;-83
2023/12/14 11:13:14;;;;;;;55.25;16.45;;;6.50;99.90;;;;;;5039068;28;20161;-84
2023/12/14 11:15:52;;;;;;;47.50;15.93;;;6.60;99.90;;;;;;5056942;28;20181;-83
2023/12/14 11:18:17;;;;;;;46.78;14.80;;;6.60;99.90;;;;;;5039436;28;20252;-83
2023/12/14 11:20:49;;;;;;;52.70;15.37;;;6.60;99.90;;;;;;5056585;28;20196;-83
2023/12/14 11:23:42;;;;;;;49.05;17.02;;;6.60;99.90;;;;;;5055893;28;20192;-84
2023/12/14 11:26:11;;;;;;;42.00;14.43;;;6.60;99.90;;;;;;5054478;28;20242;-83
2023/12/14 11:28:41;;;;;;;44.33;13.20;;;6.50;99.90;;;;;;5056182;28;20181;-83
2023/12/14 11:31:10;;;;;;;40.80;14.18;;;6.60;99.90;;;;;;5056389;28;20169;-84
2023/12/14 11:33:36;;;;;;;41.08;13.63;;;6.60;99.90;;;;;;5056415;28;20161;-84
2023/12/14 11:36:03;;;;;;;45.35;14.82;;;6.60;99.90;;;;;;5056089;28;20166;-84
2023/12/14 11:38:30;;;;;;;45.30;14.45;;;6.60;99.90;;;;;;5056059;28;20258;-83
2023/12/14 11:40:56;;;;;;;43.47;13.35;;;6.60;99.90;;;;;;5038181;28;20193;-83
2023/12/14 11:43:21;;;;;;;45.23;14.83;;;6.70;99.90;;;;;;5056129;28;20169;-84
2023/12/14 11:45:47;;;;;;;47.40;13.93;;;6.60;99.90;;;;;;5038302;28;20212;-83
2023/12/14 11:48:13;;;;;;;49.53;15.15;;;6.60;99.90;;;;;;5055537;28;20554;-84
2023/12/14 11:50:40;;;;;;;43.27;14.10;;;6.60;99.90;;;;;;5038178;28;20177;-84
2023/12/14 11:53:09;;;;;;;46.58;13.70;;;6.60;99.90;;;;;;5056126;28;20543;-84
2023/12/14 11:55:38;;;;;;;42.83;15.05;;;6.70;99.90;;;;;;5055486;28;20550;-84
2023/12/14 11:58:04;;;;;;;41.67;13.68;;;6.70;99.90;;;;;;5055932;28;20260;-83
2023/12/14 12:00:31;;;;;;;43.90;15.32;;;6.70;99.90;;;;;;5055632;28;20170;-83
2023/12/14 12:03:19;;;;;;;38.20;13.00;;;6.60;99.90;;;;;;5037688;28;20706;-83
2023/12/14 12:05:46;;;;;;;41.88;13.32;;;6.70;99.90;;;;;;5055260;28;20639;-83
2023/12/14 12:08:13;;;;;;;42.03;14.18;;;6.70;99.90;;;;;;5037519;28;20216;-83
2023/12/14 12:10:40;;;;;;;43.42;14.98;;;6.70;99.90;;;;;;5037652;28;20180;-84
2023/12/14 12:13:17;;;;;;;46.50;15.55;;;6.70;99.90;;;;;;5055646;28;20164;-83
2023/12/14 12:15:44;;;;;;;41.30;13.85;;;6.60;99.90;;;;;;5055197;28;20184;-83
2023/12/14 12:18:16;;;;;;;45.28;14.20;;;6.50;99.90;;;;;;5055375;28;20601;-83
2023/12/14 12:20:42;;;;;;;38.15;12.65;;;6.50;99.90;;;;;;5038090;28;20161;-84
2023/12/14 12:23:08;;;;;;;43.93;15.10;;;6.60;99.90;;;;;;5038600;28;20196;-83
2023/12/14 12:25:34;;;;;;;41.47;13.80;;;6.60;99.90;;;;;;5038424;28;20431;-83
2023/12/14 12:28:01;;;;;;;43.45;15.95;;;6.50;99.90;;;;;;5056144;28;20268;-83
2023/12/14 12:30:27;;;;;;;48.13;15.40;;;6.40;99.90;;;;;;5038484;28;20255;-83
2023/12/14 12:32:55;;;;;;;45.30;14.13;;;6.50;99.90;;;;;;5055999;28;20628;-84
2023/12/14 12:35:30;;;;;;;44.35;13.68;;;6.40;99.90;;;;;;5057251;28;20184;-83
2023/12/14 12:37:56;;;;;;;41.72;12.20;;;6.40;99.90;;;;;;5038675;28;20672;-84
2023/12/14 12:40:22;;;;;;;42.17;13.40;;;6.50;99.90;;;;;;5056533;28;20176;-83